createdAt,value
2019-03-31T00:01:16.071Z,71.50
2019-03-31T00:03:44.849Z,71.80
2019-03-31T00:06:13.701Z,72.60
2019-03-31T00:08:42.887Z,73.60
2019-03-31T00:11:11.742Z,73.70
2019-03-31T00:13:40.579Z,73.20
2019-03-31T00:16:09.370Z,72.30
2019-03-31T00:18:38.145Z,72.90
2019-03-31T00:21:07.235Z,71.70
2019-03-31T00:23:36.103Z,71.30
2019-03-31T00:26:04.893Z,71.40
2019-03-31T00:28:34.026Z,71.50
2019-03-31T00:31:02.823Z,73.30
2019-03-31T00:33:31.590Z,74.70
2019-03-31T00:36:00.370Z,75.30
2019-03-31T00:38:29.243Z,75.50
2019-03-31T00:40:58.021Z,74.30
2019-03-31T00:43:26.788Z,74.20
2019-03-31T00:45:55.582Z,74.00
2019-03-31T00:48:24.351Z,74.30
2019-03-31T00:50:53.140Z,74.50
2019-03-31T00:53:22.017Z,74.80
2019-03-31T00:55:51.105Z,75.80
2019-03-31T00:58:19.893Z,74.80
2019-03-31T01:00:50.648Z,74.60
2019-03-31T01:03:19.489Z,74.60
2019-03-31T01:05:48.252Z,74.90
2019-03-31T01:08:17.899Z,75.90
2019-03-31T01:10:46.666Z,75.60
2019-03-31T01:13:15.440Z,74.20
2019-03-31T01:15:44.252Z,74.50
2019-03-31T01:18:13.036Z,75.00
2019-03-31T01:20:42.273Z,75.60
2019-03-31T01:23:11.146Z,75.00
2019-03-31T01:25:40.059Z,75.10
2019-03-31T01:28:08.898Z,74.70
2019-03-31T01:30:37.703Z,74.20
2019-03-31T01:33:06.481Z,73.10
2019-03-31T01:35:35.247Z,73.30
2019-03-31T01:38:04.062Z,73.70
2019-03-31T01:40:32.914Z,74.40
2019-03-31T01:43:01.748Z,74.60
2019-03-31T01:45:30.556Z,74.40
2019-03-31T01:47:59.319Z,74.60
2019-03-31T01:50:28.151Z,74.20
2019-03-31T01:52:56.961Z,75.80
2019-03-31T01:55:25.748Z,76.90
2019-03-31T01:57:54.867Z,77.40
2019-03-31T02:00:25.604Z,77.60
2019-03-31T02:02:54.793Z,77.80
2019-03-31T02:05:23.562Z,77.30
2019-03-31T02:07:52.686Z,77.80
2019-03-31T02:10:21.776Z,77.60
2019-03-31T02:12:50.558Z,78.00
2019-03-31T02:15:19.375Z,78.10
2019-03-31T02:17:48.136Z,78.10
2019-03-31T02:20:16.924Z,76.40
2019-03-31T02:22:45.733Z,76.00
2019-03-31T02:25:14.509Z,76.40
2019-03-31T02:27:43.295Z,76.50
2019-03-31T02:30:12.170Z,75.00
2019-03-31T02:32:41.313Z,74.40
2019-03-31T02:35:10.160Z,75.60
2019-03-31T02:37:38.976Z,76.50
2019-03-31T02:40:07.739Z,77.20
2019-03-31T02:42:36.508Z,76.00
2019-03-31T02:45:07.354Z,75.60
2019-03-31T02:47:36.198Z,76.50
2019-03-31T02:50:06.209Z,75.90
2019-03-31T02:52:35.019Z,75.60
2019-03-31T02:55:03.866Z,76.90
2019-03-31T02:57:32.704Z,77.70
2019-03-31T03:00:01.507Z,77.70
2019-03-31T03:02:41.566Z,78.30
2019-03-31T03:05:17.859Z,77.80
2019-03-31T03:07:31.355Z,77.90
2019-03-31T03:10:00.630Z,79.00
2019-03-31T03:12:30.537Z,79.30
2019-03-31T03:15:00.676Z,78.70
2019-03-31T03:17:29.465Z,77.90
2019-03-31T03:19:58.311Z,77.60
2019-03-31T03:22:27.116Z,76.90
2019-03-31T03:24:55.891Z,77.70
2019-03-31T03:27:24.753Z,78.20
2019-03-31T03:29:53.606Z,78.60
2019-03-31T03:32:22.503Z,79.00
2019-03-31T03:34:51.631Z,79.60
2019-03-31T03:37:20.450Z,78.00
2019-03-31T03:39:49.577Z,77.20
2019-03-31T03:42:18.370Z,76.80
2019-03-31T03:44:47.174Z,76.40
2019-03-31T03:47:15.962Z,76.90
2019-03-31T03:49:45.135Z,77.90
2019-03-31T03:52:13.921Z,78.50
2019-03-31T03:54:42.692Z,77.90
2019-03-31T03:57:11.470Z,77.80
2019-03-31T03:59:40.297Z,78.40
2019-03-31T04:02:09.130Z,78.70
2019-03-31T04:04:37.988Z,79.20
2019-03-31T04:07:07.197Z,79.30
2019-03-31T04:09:35.995Z,78.90
2019-03-31T04:12:04.851Z,78.90
2019-03-31T04:14:33.714Z,79.30
2019-03-31T04:17:02.493Z,77.30
2019-03-31T04:19:31.271Z,76.90
2019-03-31T04:22:00.067Z,76.80
2019-03-31T04:24:28.917Z,77.50
2019-03-31T04:26:57.764Z,77.50
2019-03-31T04:29:26.585Z,79.00
2019-03-31T04:31:55.374Z,78.50
2019-03-31T04:34:24.201Z,78.50
2019-03-31T04:36:53.056Z,76.70
2019-03-31T04:39:21.832Z,76.30
2019-03-31T04:41:50.953Z,76.70
2019-03-31T04:44:19.842Z,76.50
2019-03-31T04:46:48.702Z,76.70
2019-03-31T04:49:17.858Z,77.80
2019-03-31T04:51:46.742Z,79.00
2019-03-31T04:54:15.517Z,78.90
2019-03-31T04:56:44.308Z,77.70
2019-03-31T04:59:13.176Z,77.50
2019-03-31T05:01:41.939Z,78.60
2019-03-31T05:04:10.749Z,80.00
2019-03-31T05:06:39.631Z,80.30
2019-03-31T05:09:08.407Z,80.20
2019-03-31T05:11:37.180Z,79.70
2019-03-31T05:14:05.990Z,79.30
2019-03-31T05:16:34.840Z,80.00
2019-03-31T05:19:03.626Z,80.00
2019-03-31T05:21:32.436Z,82.60
2019-03-31T05:24:01.289Z,84.40
2019-03-31T05:26:30.053Z,84.50
2019-03-31T05:28:58.877Z,83.70
2019-03-31T05:31:27.661Z,81.80
2019-03-31T05:33:56.430Z,81.20
2019-03-31T05:36:25.243Z,81.30
2019-03-31T05:38:54.023Z,81.20
2019-03-31T05:41:22.860Z,79.50
2019-03-31T05:44:04.840Z,78.70
2019-03-31T05:46:22.139Z,79.90
2019-03-31T05:48:56.736Z,81.70
2019-03-31T05:51:25.577Z,81.00
2019-03-31T05:53:54.343Z,80.90
2019-03-31T05:56:23.197Z,80.50
2019-03-31T05:58:52.033Z,80.80
2019-03-31T06:01:20.793Z,80.80
2019-03-31T06:03:49.587Z,80.50
2019-03-31T06:06:19.327Z,80.40
2019-03-31T06:08:48.181Z,80.40
2019-03-31T06:11:16.989Z,79.10
2019-03-31T06:13:46.132Z,79.10
2019-03-31T06:16:14.980Z,78.70
2019-03-31T06:18:43.829Z,77.80
2019-03-31T06:21:12.677Z,77.90
2019-03-31T06:23:41.466Z,77.20
2019-03-31T06:26:10.262Z,76.90
2019-03-31T06:28:39.117Z,77.90
2019-03-31T06:31:07.886Z,77.70
2019-03-31T06:33:36.698Z,78.60
2019-03-31T06:36:05.494Z,78.30
2019-03-31T06:38:34.625Z,79.20
2019-03-31T06:41:03.902Z,79.00
2019-03-31T06:43:32.685Z,77.90
2019-03-31T06:46:01.867Z,76.50
2019-03-31T06:48:30.775Z,75.50
2019-03-31T06:50:59.631Z,74.50
2019-03-31T06:53:28.419Z,75.20
2019-03-31T06:55:57.301Z,74.80
2019-03-31T06:58:26.086Z,75.40
2019-03-31T07:00:54.868Z,75.20
2019-03-31T07:03:23.692Z,76.40
2019-03-31T07:05:52.541Z,75.00
2019-03-31T07:08:21.345Z,74.80
2019-03-31T07:10:50.154Z,73.50
2019-03-31T07:13:18.920Z,73.70
2019-03-31T07:15:47.697Z,73.90
2019-03-31T07:18:16.536Z,73.70
2019-03-31T07:20:45.348Z,74.00
2019-03-31T07:23:14.202Z,74.20
2019-03-31T07:25:43.086Z,73.50
2019-03-31T07:28:11.875Z,75.00
2019-03-31T07:30:40.747Z,74.80
2019-03-31T07:33:09.888Z,75.80
2019-03-31T07:35:39.095Z,75.60
2019-03-31T07:38:08.218Z,75.70
2019-03-31T07:40:37.061Z,76.00
2019-03-31T07:43:06.047Z,77.00
2019-03-31T07:45:34.954Z,76.50
2019-03-31T07:48:03.786Z,76.20
2019-03-31T07:50:32.626Z,76.60
2019-03-31T07:53:01.504Z,75.50
2019-03-31T07:55:30.360Z,76.70
2019-03-31T07:57:59.152Z,76.60
2019-03-31T08:00:28.013Z,75.30
2019-03-31T08:03:00.030Z,74.30
2019-03-31T08:05:33.263Z,74.00
2019-03-31T08:07:58.140Z,74.50
2019-03-31T08:10:27.008Z,74.60
2019-03-31T08:12:55.776Z,74.60
2019-03-31T08:15:24.913Z,74.90
2019-03-31T08:17:53.771Z,74.20
2019-03-31T08:20:22.559Z,75.00
2019-03-31T08:22:51.344Z,75.70
2019-03-31T08:25:22.111Z,76.00
2019-03-31T08:27:50.883Z,75.60
2019-03-31T08:30:19.668Z,75.60
2019-03-31T08:32:48.484Z,75.50
2019-03-31T08:35:17.692Z,74.70
2019-03-31T08:37:46.469Z,75.60
2019-03-31T08:40:15.306Z,74.10
2019-03-31T08:42:44.153Z,74.60
2019-03-31T08:45:12.937Z,75.20
2019-03-31T08:47:41.750Z,75.80
2019-03-31T08:50:12.574Z,74.80
2019-03-31T08:52:41.439Z,75.40
2019-03-31T08:55:10.300Z,75.80
2019-03-31T08:57:39.094Z,75.50
2019-03-31T09:00:10.944Z,75.60
2019-03-31T09:02:39.767Z,76.10
2019-03-31T09:05:09.028Z,77.00
2019-03-31T09:07:37.946Z,77.60
2019-03-31T09:10:09.356Z,77.40
2019-03-31T09:12:38.496Z,77.20
2019-03-31T09:15:08.717Z,77.00
2019-03-31T09:17:37.876Z,76.70
2019-03-31T09:20:07.485Z,75.90
2019-03-31T09:22:36.332Z,75.90
2019-03-31T09:25:05.983Z,75.90
2019-03-31T09:27:34.754Z,76.40
2019-03-31T09:30:06.952Z,75.90
2019-03-31T09:32:35.822Z,75.90
2019-03-31T09:35:07.157Z,75.50
2019-03-31T09:37:36.406Z,75.30
2019-03-31T09:40:06.647Z,75.40
2019-03-31T09:42:35.910Z,74.30
2019-03-31T09:45:06.340Z,73.40
2019-03-31T09:47:35.518Z,74.30
2019-03-31T09:50:07.601Z,74.30
2019-03-31T09:52:36.417Z,74.10
2019-03-31T09:55:07.179Z,73.10
2019-03-31T09:57:35.952Z,72.50
2019-03-31T10:00:12.772Z,73.00
2019-03-31T10:02:41.623Z,72.90
2019-03-31T10:05:10.416Z,72.40
2019-03-31T10:07:39.275Z,70.70
2019-03-31T10:10:09.513Z,72.20
2019-03-31T10:12:38.289Z,69.20
2019-03-31T10:15:07.726Z,68.80
2019-03-31T10:17:36.555Z,70.10
2019-03-31T10:20:05.976Z,69.00
2019-03-31T10:22:34.837Z,67.80
2019-03-31T10:25:06.092Z,67.30
2019-03-31T10:27:34.935Z,66.50
2019-03-31T10:30:05.628Z,66.30
2019-03-31T10:32:34.432Z,66.10
2019-03-31T10:35:03.882Z,64.40
2019-03-31T10:37:32.665Z,63.30
2019-03-31T10:40:01.535Z,62.20
2019-03-31T10:42:30.612Z,62.00
2019-03-31T10:44:59.403Z,59.90
2019-03-31T10:47:28.214Z,58.10
2019-03-31T10:49:57.130Z,58.00
2019-03-31T10:52:25.899Z,59.60
2019-03-31T10:54:54.706Z,60.30
2019-03-31T10:57:23.493Z,60.70
2019-03-31T10:59:52.335Z,61.60
2019-03-31T11:02:21.166Z,62.20
2019-03-31T11:04:50.000Z,63.00
2019-03-31T11:07:18.839Z,62.80
2019-03-31T11:09:47.717Z,63.70
2019-03-31T11:12:16.565Z,62.90
2019-03-31T11:14:45.356Z,63.20
2019-03-31T11:17:14.498Z,61.80
2019-03-31T11:19:43.284Z,62.50
2019-03-31T11:22:13.766Z,63.00
2019-03-31T11:24:42.644Z,62.80
2019-03-31T11:27:11.418Z,62.90
2019-03-31T11:29:40.195Z,60.80
2019-03-31T11:32:09.004Z,62.60
2019-03-31T11:34:37.807Z,60.10
2019-03-31T11:37:13.441Z,59.50
2019-03-31T11:39:37.246Z,59.40
2019-03-31T11:42:06.090Z,60.70
2019-03-31T11:44:34.867Z,60.30
2019-03-31T11:47:03.801Z,58.90
2019-03-31T11:49:32.858Z,57.90
2019-03-31T11:52:01.672Z,56.10
2019-03-31T11:54:30.546Z,56.70
2019-03-31T11:56:59.323Z,56.90
2019-03-31T11:59:28.098Z,56.30
2019-03-31T12:01:57.243Z,55.70
2019-03-31T12:04:26.087Z,53.20
2019-03-31T12:06:54.964Z,52.00
2019-03-31T12:09:23.823Z,52.10
2019-03-31T12:11:52.605Z,52.90
2019-03-31T12:14:21.482Z,53.40
2019-03-31T12:16:50.275Z,54.50
2019-03-31T12:19:19.361Z,54.60
2019-03-31T12:21:48.135Z,54.40
2019-03-31T12:24:16.947Z,53.10
2019-03-31T12:26:46.042Z,54.00
2019-03-31T12:29:14.902Z,52.80
2019-03-31T12:31:43.708Z,54.40
2019-03-31T12:34:12.490Z,54.80
2019-03-31T12:36:41.269Z,53.90
2019-03-31T12:39:10.107Z,53.10
2019-03-31T12:41:38.969Z,51.30
2019-03-31T12:44:07.819Z,50.60
2019-03-31T12:46:36.637Z,49.70
2019-03-31T12:49:05.422Z,49.10
2019-03-31T12:51:34.202Z,48.30
2019-03-31T12:54:03.070Z,47.20
2019-03-31T12:56:31.857Z,46.10
2019-03-31T12:59:00.714Z,46.50
2019-03-31T13:01:29.536Z,46.90
2019-03-31T13:03:58.716Z,49.20
2019-03-31T13:06:27.567Z,48.30
2019-03-31T13:08:56.368Z,48.70
2019-03-31T13:11:25.143Z,49.60
2019-03-31T13:13:53.929Z,49.40
2019-03-31T13:16:22.806Z,50.20
2019-03-31T13:18:52.146Z,50.60
2019-03-31T13:21:20.996Z,51.20
2019-03-31T13:23:49.799Z,51.10
2019-03-31T13:26:18.574Z,52.10
2019-03-31T13:28:47.359Z,51.20
2019-03-31T13:31:16.160Z,51.20
2019-03-31T13:33:45.335Z,51.20
2019-03-31T13:36:14.167Z,50.90
2019-03-31T13:38:43.262Z,49.10
2019-03-31T13:41:12.114Z,47.60
2019-03-31T13:43:40.985Z,47.00
2019-03-31T13:46:09.877Z,45.20
2019-03-31T13:48:38.663Z,44.50
2019-03-31T13:51:07.431Z,44.10
2019-03-31T13:53:36.247Z,43.30
2019-03-31T13:56:05.458Z,43.80
2019-03-31T13:58:38.665Z,43.70
2019-03-31T14:01:07.418Z,44.50
2019-03-31T14:03:36.422Z,44.60
2019-03-31T14:06:06.113Z,44.40
2019-03-31T14:08:34.973Z,45.80
2019-03-31T14:11:03.825Z,45.30
2019-03-31T14:13:32.910Z,47.40
2019-03-31T14:16:01.714Z,48.40
2019-03-31T14:18:30.483Z,48.60
2019-03-31T14:20:59.347Z,48.60
2019-03-31T14:23:28.703Z,47.30
2019-03-31T14:25:58.014Z,48.30
2019-03-31T14:28:29.295Z,47.20
2019-03-31T14:30:58.787Z,47.80
2019-03-31T14:33:27.995Z,48.10
2019-03-31T14:35:57.383Z,48.30
2019-03-31T14:38:39.403Z,48.20
2019-03-31T14:40:57.690Z,50.10
2019-03-31T14:43:48.903Z,49.20
2019-03-31T14:46:19.607Z,49.40
2019-03-31T14:48:48.227Z,50.30
2019-03-31T14:51:17.342Z,50.60
2019-03-31T14:53:46.201Z,50.30
2019-03-31T14:56:15.038Z,50.20
2019-03-31T14:58:43.867Z,50.90
2019-03-31T15:01:12.718Z,50.60
2019-03-31T15:03:41.573Z,49.70
2019-03-31T15:06:10.406Z,50.00
2019-03-31T15:08:53.533Z,49.90
2019-03-31T15:11:09.712Z,50.40
2019-03-31T15:13:38.599Z,49.50
2019-03-31T15:16:07.461Z,49.00
2019-03-31T15:18:36.264Z,48.80
2019-03-31T15:21:05.121Z,48.90
2019-03-31T15:23:34.111Z,50.10
2019-03-31T15:26:03.354Z,49.50
2019-03-31T15:28:32.268Z,48.60
2019-03-31T15:31:01.116Z,48.20
2019-03-31T15:33:29.898Z,50.10
2019-03-31T15:35:58.718Z,49.40
2019-03-31T15:38:27.511Z,50.00
2019-03-31T15:40:56.363Z,50.60
2019-03-31T15:43:26.031Z,49.80
2019-03-31T15:45:54.823Z,50.40
2019-03-31T15:48:23.682Z,50.90
2019-03-31T15:50:52.496Z,51.50
2019-03-31T15:53:21.279Z,51.10
2019-03-31T15:55:50.063Z,52.10
2019-03-31T15:58:20.915Z,51.50
2019-03-31T16:00:49.761Z,52.40
2019-03-31T16:03:18.616Z,52.90
2019-03-31T16:05:47.428Z,51.90
2019-03-31T16:08:16.207Z,51.90
2019-03-31T16:10:45.004Z,52.80
2019-03-31T16:13:13.902Z,52.10
2019-03-31T16:15:42.758Z,52.60
2019-03-31T16:18:11.604Z,51.70
2019-03-31T16:20:40.403Z,52.30
2019-03-31T16:23:09.262Z,51.30
2019-03-31T16:25:39.685Z,51.80
2019-03-31T16:28:08.497Z,52.50
2019-03-31T16:30:37.846Z,53.20
2019-03-31T16:33:07.174Z,53.80
2019-03-31T16:35:36.307Z,54.20
2019-03-31T16:38:05.092Z,54.00
2019-03-31T16:40:33.874Z,54.70
2019-03-31T16:43:02.675Z,54.70
2019-03-31T16:45:31.793Z,54.20
2019-03-31T16:48:00.575Z,54.00
2019-03-31T16:50:29.437Z,53.40
2019-03-31T16:52:58.286Z,53.70
2019-03-31T16:55:27.054Z,53.30
2019-03-31T16:57:56.204Z,54.30
2019-03-31T17:00:24.996Z,54.00
2019-03-31T17:02:53.778Z,54.70
2019-03-31T17:05:22.768Z,55.40
2019-03-31T17:07:51.631Z,55.70
2019-03-31T17:10:20.475Z,55.10
2019-03-31T17:12:49.350Z,55.40
2019-03-31T17:15:18.505Z,55.60
2019-03-31T17:17:47.619Z,56.50
2019-03-31T17:20:16.492Z,56.50
2019-03-31T17:22:45.269Z,55.50
2019-03-31T17:25:14.394Z,55.80
2019-03-31T17:27:43.278Z,56.00
2019-03-31T17:30:12.061Z,56.80
2019-03-31T17:32:40.847Z,56.20
2019-03-31T17:35:09.720Z,56.90
2019-03-31T17:37:38.495Z,57.40
2019-03-31T17:40:07.755Z,57.90
2019-03-31T17:42:36.654Z,58.30
2019-03-31T17:45:07.141Z,58.10
2019-03-31T17:47:36.582Z,58.10
2019-03-31T17:50:05.651Z,57.70
2019-03-31T17:52:34.429Z,58.10
2019-03-31T17:55:04.221Z,58.20
2019-03-31T17:57:33.025Z,58.50
2019-03-31T18:00:01.825Z,58.60
2019-03-31T18:02:30.593Z,58.70
2019-03-31T18:04:59.437Z,59.20
2019-03-31T18:07:28.274Z,59.60
2019-03-31T18:09:57.056Z,59.30
2019-03-31T18:12:25.883Z,59.90
2019-03-31T18:14:54.662Z,60.10
2019-03-31T18:17:23.441Z,60.20
2019-03-31T18:19:52.250Z,60.90
2019-03-31T18:22:21.046Z,61.40
2019-03-31T18:24:49.817Z,60.80
2019-03-31T18:27:18.627Z,61.10
2019-03-31T18:29:47.406Z,61.60
2019-03-31T18:32:16.193Z,61.50
2019-03-31T18:34:45.008Z,61.60
2019-03-31T18:37:13.852Z,62.70
2019-03-31T18:39:42.993Z,62.60
2019-03-31T18:42:11.870Z,62.70
2019-03-31T18:44:40.647Z,62.20
2019-03-31T18:47:09.780Z,62.00
2019-03-31T18:49:38.652Z,62.60
2019-03-31T18:52:07.415Z,62.60
2019-03-31T18:54:53.931Z,62.60
2019-03-31T18:57:30.377Z,63.10
2019-03-31T19:00:09.706Z,62.90
2019-03-31T19:02:56.599Z,63.00
2019-03-31T19:05:36.158Z,63.60
2019-03-31T19:08:15.970Z,63.60
2019-03-31T19:10:49.730Z,63.70
2019-03-31T19:13:34.984Z,64.30
2019-03-31T19:16:15.349Z,63.80
2019-03-31T19:19:04.025Z,64.00
2019-03-31T19:21:34.468Z,64.50
2019-03-31T19:24:10.978Z,64.30
2019-03-31T19:26:48.611Z,64.40
2019-03-31T19:29:32.148Z,65.10
2019-03-31T19:32:02.589Z,64.40
2019-03-31T19:34:33.078Z,64.80
2019-03-31T19:37:12.610Z,64.90
2019-03-31T19:40:01.667Z,64.40
2019-03-31T19:42:32.085Z,64.40
2019-03-31T19:45:18.603Z,64.80
2019-03-31T19:47:58.141Z,65.00
2019-03-31T19:50:46.686Z,64.90
2019-03-31T19:53:35.786Z,65.30
2019-03-31T19:56:22.184Z,65.20
2019-03-31T19:58:52.640Z,65.50
2019-03-31T20:01:34.750Z,64.90
2019-03-31T20:04:23.457Z,65.40
2019-03-31T20:06:56.469Z,65.20
2019-03-31T20:09:43.387Z,66.60
2019-03-31T20:12:13.803Z,66.40
2019-03-31T20:15:00.632Z,66.60
2019-03-31T20:17:31.111Z,66.80
2019-03-31T20:20:19.613Z,67.30
2019-03-31T20:22:53.074Z,67.10
2019-03-31T20:25:23.556Z,66.80
2019-03-31T20:27:59.826Z,67.30
2019-03-31T20:30:42.356Z,66.80
2019-03-31T20:33:18.749Z,68.00
2019-03-31T20:35:52.093Z,68.60
2019-03-31T20:38:38.855Z,68.30
2019-03-31T20:41:09.327Z,68.30
2019-03-31T20:43:42.797Z,68.90
2019-03-31T20:46:11.598Z,69.70
2019-03-31T20:48:40.430Z,69.70
2019-03-31T20:51:09.214Z,70.10
2019-03-31T20:53:38.014Z,70.20
2019-03-31T20:56:06.822Z,70.30
2019-03-31T20:58:35.652Z,70.40
2019-03-31T21:01:04.482Z,70.60
2019-03-31T21:03:33.271Z,70.80
2019-03-31T21:06:02.142Z,71.20
2019-03-31T21:08:30.974Z,70.40
2019-03-31T21:10:59.827Z,70.00
2019-03-31T21:13:28.598Z,70.20
2019-03-31T21:15:57.465Z,70.00
2019-03-31T21:18:26.238Z,70.00
2019-03-31T21:20:55.010Z,70.00
2019-03-31T21:23:23.897Z,69.90
2019-03-31T21:25:52.656Z,69.90
2019-03-31T21:28:21.755Z,70.60
2019-03-31T21:30:50.624Z,71.40
2019-03-31T21:33:19.470Z,72.30
2019-03-31T21:35:48.658Z,72.10
2019-03-31T21:38:18.218Z,72.30
2019-03-31T21:40:46.993Z,72.60
2019-03-31T21:43:15.761Z,72.30
2019-03-31T21:45:45.796Z,72.60
2019-03-31T21:48:14.572Z,72.20
2019-03-31T21:50:43.331Z,72.20
2019-03-31T21:53:12.144Z,71.90
2019-03-31T21:55:40.934Z,71.80
2019-03-31T21:58:09.760Z,71.80
2019-03-31T22:00:51.755Z,71.80
2019-03-31T22:03:20.591Z,71.80
2019-03-31T22:05:49.430Z,71.80
2019-03-31T22:08:18.661Z,71.60
2019-03-31T22:10:47.518Z,71.60
2019-03-31T22:13:16.360Z,71.60
2019-03-31T22:15:45.162Z,71.60
2019-03-31T22:18:14.014Z,71.40
2019-03-31T22:20:42.776Z,71.20
2019-03-31T22:23:11.622Z,71.60
2019-03-31T22:25:40.418Z,71.30
2019-03-31T22:28:09.201Z,71.30
2019-03-31T22:30:38.059Z,70.40
2019-03-31T22:33:06.833Z,70.60
2019-03-31T22:35:35.595Z,70.60
2019-03-31T22:38:04.399Z,69.80
2019-03-31T22:40:33.220Z,69.80
2019-03-31T22:43:01.998Z,69.40
2019-03-31T22:45:30.806Z,69.20
2019-03-31T22:47:59.904Z,69.60
2019-03-31T22:50:28.756Z,70.20
2019-03-31T22:52:57.556Z,70.10
2019-03-31T22:55:26.334Z,70.30
2019-03-31T22:57:55.120Z,70.30
2019-03-31T23:00:27.661Z,70.30
2019-03-31T23:02:56.508Z,69.70
2019-03-31T23:05:25.353Z,69.20
2019-03-31T23:07:54.139Z,68.50
2019-03-31T23:10:22.903Z,69.10
2019-03-31T23:12:51.999Z,68.30
2019-03-31T23:15:20.786Z,68.00
2019-03-31T23:17:49.562Z,67.70
2019-03-31T23:20:18.394Z,67.50
2019-03-31T23:22:47.202Z,67.70
2019-03-31T23:25:15.963Z,67.80
2019-03-31T23:27:44.743Z,67.10
2019-03-31T23:30:13.833Z,67.10
2019-03-31T23:32:42.671Z,67.60
2019-03-31T23:35:11.445Z,67.00
2019-03-31T23:37:40.239Z,67.50
2019-03-31T23:40:09.006Z,67.00
2019-03-31T23:42:37.776Z,66.20
2019-03-31T23:45:06.628Z,66.80
2019-03-31T23:47:35.406Z,66.70
2019-03-31T23:50:04.896Z,66.60
2019-03-31T23:52:33.716Z,66.90
2019-03-31T23:55:02.490Z,66.80
2019-03-31T23:57:41.821Z,66.40
